sensor_id;sensor_type;location;lat;lon;timestamp;pressure;altitude;pressure_sealevel;temperature;humidity
22755;BME280;11544;42.020;23.094;2022-10-29T00:00:10;98319.06;;;9.44;73.99
22755;BME280;11544;42.020;23.094;2022-10-29T00:02:36;98315.03;;;9.18;75.98
22755;BME280;11544;42.020;23.094;2022-10-29T00:05:02;98320.19;;;9.23;76.37
22755;BME280;11544;42.020;23.094;2022-10-29T00:07:30;98324.09;;;9.56;76.38
22755;BME280;11544;42.020;23.094;2022-10-29T00:09:56;98322.28;;;9.61;76.00
22755;BME280;11544;42.020;23.094;2022-10-29T00:12:21;98315.44;;;9.54;75.36
22755;BME280;11544;42.020;23.094;2022-10-29T00:14:47;98319.78;;;9.53;75.28
22755;BME280;11544;42.020;23.094;2022-10-29T00:17:13;98306.47;;;9.77;74.92
22755;BME280;11544;42.020;23.094;2022-10-29T00:19:40;98322.44;;;9.52;74.45
22755;BME280;11544;42.020;23.094;2022-10-29T00:22:11;98318.31;;;9.34;75.18
22755;BME280;11544;42.020;23.094;2022-10-29T00:24:37;98320.34;;;9.12;76.52
22755;BME280;11544;42.020;23.094;2022-10-29T00:27:05;98312.69;;;8.95;77.59
22755;BME280;11544;42.020;23.094;2022-10-29T00:29:31;98309.78;;;9.23;77.53
22755;BME280;11544;42.020;23.094;2022-10-29T00:31:56;98312.94;;;9.46;76.45
22755;BME280;11544;42.020;23.094;2022-10-29T00:34:24;98305.19;;;9.43;76.39
22755;BME280;11544;42.020;23.094;2022-10-29T00:36:50;98308.16;;;9.79;75.16
22755;BME280;11544;42.020;23.094;2022-10-29T00:39:16;98303.19;;;9.62;75.52
22755;BME280;11544;42.020;23.094;2022-10-29T00:41:42;98296.59;;;9.38;75.66
22755;BME280;11544;42.020;23.094;2022-10-29T00:46:42;98300.03;;;9.40;74.73
22755;BME280;11544;42.020;23.094;2022-10-29T00:49:09;98306.72;;;8.88;77.74
22755;BME280;11544;42.020;23.094;2022-10-29T00:51:36;98304.97;;;8.90;78.85
22755;BME280;11544;42.020;23.094;2022-10-29T00:54:08;98294.59;;;9.56;76.82
22755;BME280;11544;42.020;23.094;2022-10-29T00:56:42;98289.09;;;9.14;78.10
22755;BME280;11544;42.020;23.094;2022-10-29T00:59:14;98279.09;;;9.48;76.77
22755;BME280;11544;42.020;23.094;2022-10-29T01:01:41;98291.63;;;9.18;76.58
22755;BME280;11544;42.020;23.094;2022-10-29T01:04:08;98293.00;;;8.77;79.29
22755;BME280;11544;42.020;23.094;2022-10-29T01:06:34;98298.09;;;8.85;79.40
22755;BME280;11544;42.020;23.094;2022-10-29T01:09:00;98291.09;;;8.90;79.03
22755;BME280;11544;42.020;23.094;2022-10-29T01:17:43;98286.63;;;9.01;79.02
22755;BME280;11544;42.020;23.094;2022-10-29T01:38:57;98281.47;;;8.98;79.61
22755;BME280;11544;42.020;23.094;2022-10-29T01:44:09;98276.91;;;8.41;81.11
22755;BME280;11544;42.020;23.094;2022-10-29T01:46:48;98271.13;;;8.02;83.61
22755;BME280;11544;42.020;23.094;2022-10-29T01:49:20;98273.50;;;8.28;83.51
22755;BME280;11544;42.020;23.094;2022-10-29T01:51:48;98280.13;;;8.63;84.48
22755;BME280;11544;42.020;23.094;2022-10-29T01:54:14;98276.09;;;8.32;85.14
22755;BME280;11544;42.020;23.094;2022-10-29T01:56:40;98279.50;;;8.34;86.23
22755;BME280;11544;42.020;23.094;2022-10-29T01:59:11;98282.31;;;8.15;87.11
22755;BME280;11544;42.020;23.094;2022-10-29T02:02:07;98277.81;;;8.31;87.33
22755;BME280;11544;42.020;23.094;2022-10-29T02:04:52;98277.34;;;7.83;88.85
22755;BME280;11544;42.020;23.094;2022-10-29T02:10:01;98283.19;;;8.10;89.88
22755;BME280;11544;42.020;23.094;2022-10-29T02:12:30;98279.50;;;8.37;87.54
22755;BME280;11544;42.020;23.094;2022-10-29T02:17:42;98276.97;;;8.29;88.23
22755;BME280;11544;42.020;23.094;2022-10-29T02:20:10;98282.16;;;8.31;87.84
22755;BME280;11544;42.020;23.094;2022-10-29T02:22:37;98280.34;;;8.40;86.92
22755;BME280;11544;42.020;23.094;2022-10-29T02:25:04;98275.09;;;8.48;86.16
22755;BME280;11544;42.020;23.094;2022-10-29T02:27:30;98288.25;;;8.26;86.34
22755;BME280;11544;42.020;23.094;2022-10-29T02:29:55;98284.38;;;7.70;88.11
22755;BME280;11544;42.020;23.094;2022-10-29T02:32:21;98282.53;;;7.86;89.08
22755;BME280;11544;42.020;23.094;2022-10-29T02:34:47;98271.94;;;8.11;86.14
22755;BME280;11544;42.020;23.094;2022-10-29T02:37:13;98277.41;;;7.80;86.31
22755;BME280;11544;42.020;23.094;2022-10-29T02:39:39;98271.41;;;7.70;86.51
22755;BME280;11544;42.020;23.094;2022-10-29T02:42:04;98279.19;;;7.70;86.97
22755;BME280;11544;42.020;23.094;2022-10-29T02:44:30;98273.09;;;7.76;87.65
22755;BME280;11544;42.020;23.094;2022-10-29T02:46:56;98285.25;;;7.68;86.97
22755;BME280;11544;42.020;23.094;2022-10-29T02:49:21;98277.47;;;7.64;88.08
22755;BME280;11544;42.020;23.094;2022-10-29T02:51:47;98275.66;;;7.80;87.33
22755;BME280;11544;42.020;23.094;2022-10-29T02:54:12;98265.00;;;8.13;85.80
22755;BME280;11544;42.020;23.094;2022-10-29T02:56:38;98273.97;;;7.75;86.81
22755;BME280;11544;42.020;23.094;2022-10-29T02:59:04;98270.56;;;7.67;87.93
22755;BME280;11544;42.020;23.094;2022-10-29T03:01:30;98276.88;;;7.26;89.00
22755;BME280;11544;42.020;23.094;2022-10-29T03:03:56;98281.09;;;7.40;90.48
22755;BME280;11544;42.020;23.094;2022-10-29T03:06:22;98278.53;;;7.34;90.99
22755;BME280;11544;42.020;23.094;2022-10-29T03:08:48;98286.44;;;7.08;91.84
22755;BME280;11544;42.020;23.094;2022-10-29T03:11:14;98282.97;;;7.12;93.15
22755;BME280;11544;42.020;23.094;2022-10-29T03:13:40;98286.25;;;7.43;92.36
22755;BME280;11544;42.020;23.094;2022-10-29T03:16:06;98286.41;;;7.19;93.19
22755;BME280;11544;42.020;23.094;2022-10-29T03:18:31;98285.47;;;7.34;92.54
22755;BME280;11544;42.020;23.094;2022-10-29T03:20:57;98285.59;;;7.09;93.04
22755;BME280;11544;42.020;23.094;2022-10-29T03:23:23;98276.78;;;7.39;93.00
22755;BME280;11544;42.020;23.094;2022-10-29T03:25:50;98283.97;;;6.79;93.60
22755;BME280;11544;42.020;23.094;2022-10-29T03:28:20;98283.88;;;7.07;93.71
22755;BME280;11544;42.020;23.094;2022-10-29T03:30:45;98287.31;;;7.09;93.48
22755;BME280;11544;42.020;23.094;2022-10-29T03:33:11;98280.28;;;7.29;92.67
22755;BME280;11544;42.020;23.094;2022-10-29T03:35:37;98274.28;;;7.24;92.45
22755;BME280;11544;42.020;23.094;2022-10-29T03:38:02;98281.19;;;7.28;92.46
22755;BME280;11544;42.020;23.094;2022-10-29T03:40:28;98285.63;;;6.94;92.88
22755;BME280;11544;42.020;23.094;2022-10-29T03:42:54;98291.75;;;6.68;94.27
22755;BME280;11544;42.020;23.094;2022-10-29T03:45:19;98298.69;;;6.60;94.99
22755;BME280;11544;42.020;23.094;2022-10-29T03:47:47;98282.13;;;7.12;94.21
22755;BME280;11544;42.020;23.094;2022-10-29T03:50:12;98280.34;;;7.21;91.33
22755;BME280;11544;42.020;23.094;2022-10-29T03:52:38;98284.81;;;6.83;91.58
22755;BME280;11544;42.020;23.094;2022-10-29T03:55:04;98292.63;;;6.75;93.18
22755;BME280;11544;42.020;23.094;2022-10-29T03:57:30;98294.34;;;6.68;93.35
22755;BME280;11544;42.020;23.094;2022-10-29T03:59:56;98281.28;;;7.07;92.65
22755;BME280;11544;42.020;23.094;2022-10-29T04:02:22;98283.09;;;6.82;93.15
22755;BME280;11544;42.020;23.094;2022-10-29T04:04:48;98288.22;;;7.02;92.80
22755;BME280;11544;42.020;23.094;2022-10-29T04:07:14;98292.56;;;6.83;93.30
22755;BME280;11544;42.020;23.094;2022-10-29T04:09:40;98295.19;;;6.84;93.91
22755;BME280;11544;42.020;23.094;2022-10-29T04:12:06;98291.66;;;7.05;93.48
22755;BME280;11544;42.020;23.094;2022-10-29T04:14:32;98288.19;;;7.05;93.45
22755;BME280;11544;42.020;23.094;2022-10-29T04:16:58;98297.00;;;6.50;94.57
22755;BME280;11544;42.020;23.094;2022-10-29T04:19:24;98295.28;;;6.55;94.88
22755;BME280;11544;42.020;23.094;2022-10-29T04:21:58;98302.19;;;6.47;95.50
22755;BME280;11544;42.020;23.094;2022-10-29T04:24:26;98299.53;;;6.70;94.64
22755;BME280;11544;42.020;23.094;2022-10-29T04:26:52;98295.13;;;6.99;94.37
22755;BME280;11544;42.020;23.094;2022-10-29T04:29:18;98289.03;;;7.10;93.44
22755;BME280;11544;42.020;23.094;2022-10-29T04:31:44;98284.50;;;7.49;91.42
22755;BME280;11544;42.020;23.094;2022-10-29T04:34:09;98289.03;;;7.11;92.06
22755;BME280;11544;42.020;23.094;2022-10-29T04:36:35;98298.72;;;6.52;93.68
22755;BME280;11544;42.020;23.094;2022-10-29T04:39:01;98304.72;;;6.68;95.34
22755;BME280;11544;42.020;23.094;2022-10-29T04:41:27;98300.38;;;6.86;93.90
22755;BME280;11544;42.020;23.094;2022-10-29T04:43:52;98301.31;;;6.52;95.85
22755;BME280;11544;42.020;23.094;2022-10-29T04:46:18;98307.34;;;6.56;96.29
22755;BME280;11544;42.020;23.094;2022-10-29T04:48:44;98304.78;;;6.36;97.71
22755;BME280;11544;42.020;23.094;2022-10-29T04:51:20;98319.47;;;6.15;99.02
22755;BME280;11544;42.020;23.094;2022-10-29T04:53:49;98317.72;;;6.33;99.73
22755;BME280;11544;42.020;23.094;2022-10-29T04:56:15;98311.69;;;6.57;98.54
22755;BME280;11544;42.020;23.094;2022-10-29T04:58:42;98316.88;;;6.39;99.55
22755;BME280;11544;42.020;23.094;2022-10-29T05:01:07;98322.91;;;6.11;100.00
22755;BME280;11544;42.020;23.094;2022-10-29T05:03:33;98317.75;;;6.19;100.00
22755;BME280;11544;42.020;23.094;2022-10-29T05:06:05;98314.25;;;6.51;100.00
22755;BME280;11544;42.020;23.094;2022-10-29T05:08:31;98308.25;;;6.26;99.63
22755;BME280;11544;42.020;23.094;2022-10-29T05:11:03;98315.16;;;6.13;100.00
22755;BME280;11544;42.020;23.094;2022-10-29T05:13:29;98320.34;;;6.14;100.00
22755;BME280;11544;42.020;23.094;2022-10-29T05:15:55;98315.16;;;6.36;100.00
22755;BME280;11544;42.020;23.094;2022-10-29T05:18:21;98317.75;;;6.16;100.00
22755;BME280;11544;42.020;23.094;2022-10-29T05:20:47;98316.03;;;6.07;100.00
22755;BME280;11544;42.020;23.094;2022-10-29T05:23:13;98322.94;;;6.24;100.00
22755;BME280;11544;42.020;23.094;2022-10-29T05:25:39;98325.50;;;6.47;100.00
22755;BME280;11544;42.020;23.094;2022-10-29T05:28:12;98330.69;;;6.11;100.00
22755;BME280;11544;42.020;23.094;2022-10-29T05:30:38;98329.81;;;6.52;99.91
22755;BME280;11544;42.020;23.094;2022-10-29T05:33:06;98324.59;;;8.30;94.81
22755;BME280;11544;42.020;23.094;2022-10-29T05:35:32;98304.53;;;9.26;84.45
22755;BME280;11544;42.020;23.094;2022-10-29T05:37:58;98305.06;;;11.08;75.55
22755;BME280;11544;42.020;23.094;2022-10-29T05:40:24;98295.25;;;11.61;70.27
22755;BME280;11544;42.020;23.094;2022-10-29T05:42:50;98303.88;;;11.64;67.00
22755;BME280;11544;42.020;23.094;2022-10-29T05:45:19;98310.78;;;10.81;67.93
22755;BME280;11544;42.020;23.094;2022-10-29T05:47:44;98308.25;;;10.30;70.60
22755;BME280;11544;42.020;23.094;2022-10-29T05:50:11;98312.69;;;10.22;71.36
22755;BME280;11544;42.020;23.094;2022-10-29T05:52:37;98316.78;;;9.83;73.40
22755;BME280;11544;42.020;23.094;2022-10-29T05:55:04;98317.88;;;10.25;72.23
22755;BME280;11544;42.020;23.094;2022-10-29T05:57:30;98322.94;;;9.12;74.37
22755;BME280;11544;42.020;23.094;2022-10-29T05:59:55;98318.69;;;9.71;74.77
22755;BME280;11544;42.020;23.094;2022-10-29T06:02:21;98326.94;;;10.00;73.50
22755;BME280;11544;42.020;23.094;2022-10-29T06:04:47;98320.31;;;10.36;74.08
22755;BME280;11544;42.020;23.094;2022-10-29T06:07:13;98326.91;;;10.57;71.69
22755;BME280;11544;42.020;23.094;2022-10-29T06:09:38;98331.22;;;9.42;74.69
22755;BME280;11544;42.020;23.094;2022-10-29T06:12:05;98326.38;;;9.81;74.26
22755;BME280;11544;42.020;23.094;2022-10-29T06:14:31;98335.34;;;9.57;73.36
22755;BME280;11544;42.020;23.094;2022-10-29T06:16:56;98337.09;;;8.83;76.40
22755;BME280;11544;42.020;23.094;2022-10-29T06:19:22;98327.38;;;10.29;74.48
22755;BME280;11544;42.020;23.094;2022-10-29T06:21:48;98329.28;;;10.69;71.53
22755;BME280;11544;42.020;23.094;2022-10-29T06:24:13;98326.00;;;11.05;68.12
22755;BME280;11544;42.020;23.094;2022-10-29T06:26:42;98324.75;;;11.66;65.24
22755;BME280;11544;42.020;23.094;2022-10-29T06:29:08;98329.66;;;10.96;67.87
22755;BME280;11544;42.020;23.094;2022-10-29T06:31:33;98331.81;;;10.72;68.65
22755;BME280;11544;42.020;23.094;2022-10-29T06:33:59;98332.38;;;10.42;70.77
22755;BME280;11544;42.020;23.094;2022-10-29T06:36:25;98344.63;;;10.36;67.10
22755;BME280;11544;42.020;23.094;2022-10-29T06:38:50;98336.09;;;10.78;67.34
22755;BME280;11544;42.020;23.094;2022-10-29T06:41:18;98338.94;;;10.64;67.26
22755;BME280;11544;42.020;23.094;2022-10-29T06:43:49;98335.28;;;11.19;67.88
22755;BME280;11544;42.020;23.094;2022-10-29T06:46:20;98328.97;;;13.45;72.27
22755;BME280;11544;42.020;23.094;2022-10-29T06:48:49;98321.00;;;13.48;65.32
22755;BME280;11544;42.020;23.094;2022-10-29T06:51:23;98321.63;;;13.25;64.42
22755;BME280;11544;42.020;23.094;2022-10-29T06:53:49;98329.06;;;12.43;61.58
22755;BME280;11544;42.020;23.094;2022-10-29T06:56:15;98322.13;;;12.75;62.28
22755;BME280;11544;42.020;23.094;2022-10-29T06:58:41;98317.84;;;13.94;60.42
22755;BME280;11544;42.020;23.094;2022-10-29T07:01:07;98327.69;;;12.96;58.67
22755;BME280;11544;42.020;23.094;2022-10-29T07:03:33;98315.91;;;13.73;56.84
22755;BME280;11544;42.020;23.094;2022-10-29T07:05:59;98318.84;;;11.97;62.78
22755;BME280;11544;42.020;23.094;2022-10-29T07:08:25;98317.50;;;12.52;62.27
22755;BME280;11544;42.020;23.094;2022-10-29T07:10:52;98314.78;;;12.57;61.13
22755;BME280;11544;42.020;23.094;2022-10-29T07:13:18;98320.13;;;12.52;61.17
22755;BME280;11544;42.020;23.094;2022-10-29T07:15:44;98314.34;;;13.05;61.00
22755;BME280;11544;42.020;23.094;2022-10-29T07:18:15;98313.81;;;12.92;59.63
22755;BME280;11544;42.020;23.094;2022-10-29T07:20:46;98306.63;;;13.31;60.16
22755;BME280;11544;42.020;23.094;2022-10-29T07:23:12;98313.72;;;13.58;56.84
22755;BME280;11544;42.020;23.094;2022-10-29T07:25:39;98307.47;;;13.63;57.73
22755;BME280;11544;42.020;23.094;2022-10-29T07:28:13;98306.16;;;13.17;58.03
22755;BME280;11544;42.020;23.094;2022-10-29T07:30:39;98306.66;;;13.61;58.20
22755;BME280;11544;42.020;23.094;2022-10-29T07:33:05;98322.38;;;14.17;55.85
22755;BME280;11544;42.020;23.094;2022-10-29T07:35:36;98306.25;;;13.14;58.25
22755;BME280;11544;42.020;23.094;2022-10-29T07:38:08;98303.50;;;14.06;57.96
22755;BME280;11544;42.020;23.094;2022-10-29T07:40:34;98302.53;;;14.09;56.28
22755;BME280;11544;42.020;23.094;2022-10-29T07:43:02;98295.66;;;14.31;56.10
22755;BME280;11544;42.020;23.094;2022-10-29T07:45:28;98294.31;;;14.46;55.06
22755;BME280;11544;42.020;23.094;2022-10-29T07:48:01;98294.13;;;13.99;56.08
22755;BME280;11544;42.020;23.094;2022-10-29T07:50:28;98289.72;;;13.71;57.76
22755;BME280;11544;42.020;23.094;2022-10-29T07:52:53;98287.75;;;14.59;55.31
22755;BME280;11544;42.020;23.094;2022-10-29T07:55:19;98293.72;;;14.65;54.91
22755;BME280;11544;42.020;23.094;2022-10-29T07:57:45;98286.72;;;14.65;55.18
22755;BME280;11544;42.020;23.094;2022-10-29T08:00:11;98292.69;;;14.69;54.29
22755;BME280;11544;42.020;23.094;2022-10-29T08:02:41;98290.50;;;14.03;56.27
22755;BME280;11544;42.020;23.094;2022-10-29T08:05:07;98283.72;;;14.49;55.90
22755;BME280;11544;42.020;23.094;2022-10-29T08:07:33;98277.63;;;14.99;53.98
22755;BME280;11544;42.020;23.094;2022-10-29T08:10:02;98268.94;;;15.44;53.32
22755;BME280;11544;42.020;23.094;2022-10-29T08:12:27;98262.25;;;15.12;53.87
22755;BME280;11544;42.020;23.094;2022-10-29T08:14:53;98266.81;;;14.83;55.35
22755;BME280;11544;42.020;23.094;2022-10-29T08:17:19;98252.19;;;15.70;52.89
22755;BME280;11544;42.020;23.094;2022-10-29T08:19:45;98265.63;;;14.67;54.94
22755;BME280;11544;42.020;23.094;2022-10-29T08:22:12;98255.59;;;16.37;54.02
22755;BME280;11544;42.020;23.094;2022-10-29T08:24:38;98250.50;;;15.45;53.06
22755;BME280;11544;42.020;23.094;2022-10-29T08:27:18;98251.25;;;16.15;50.46
22755;BME280;11544;42.020;23.094;2022-10-29T08:29:52;98243.16;;;16.20;51.20
22755;BME280;11544;42.020;23.094;2022-10-29T08:32:19;98245.41;;;15.41;53.03
22755;BME280;11544;42.020;23.094;2022-10-29T08:34:45;98241.31;;;15.79;51.93
22755;BME280;11544;42.020;23.094;2022-10-29T08:37:11;98231.84;;;15.52;52.36
22755;BME280;11544;42.020;23.094;2022-10-29T08:39:37;98227.78;;;15.21;54.19
22755;BME280;11544;42.020;23.094;2022-10-29T08:44:59;98213.94;;;16.67;50.39
22755;BME280;11544;42.020;23.094;2022-10-29T08:47:41;98217.72;;;16.41;53.26
22755;BME280;11544;42.020;23.094;2022-10-29T08:50:13;98212.34;;;16.23;51.89
22755;BME280;11544;42.020;23.094;2022-10-29T08:52:43;98208.59;;;15.64;52.14
22755;BME280;11544;42.020;23.094;2022-10-29T08:55:17;98203.72;;;16.40;51.28
22755;BME280;11544;42.020;23.094;2022-10-29T08:57:58;98204.09;;;16.31;51.35
22755;BME280;11544;42.020;23.094;2022-10-29T09:00:33;98200.88;;;16.65;50.31
22755;BME280;11544;42.020;23.094;2022-10-29T09:03:00;98194.31;;;16.95;49.01
22755;BME280;11544;42.020;23.094;2022-10-29T09:05:44;98195.63;;;16.65;48.50
22755;BME280;11544;42.020;23.094;2022-10-29T09:20:20;98176.31;;;16.65;49.44
22755;BME280;11544;42.020;23.094;2022-10-29T09:25:55;98165.34;;;16.55;49.42
22755;BME280;11544;42.020;23.094;2022-10-29T09:28:39;98164.63;;;17.84;48.40
22755;BME280;11544;42.020;23.094;2022-10-29T09:31:19;98161.03;;;17.85;47.77
22755;BME280;11544;42.020;23.094;2022-10-29T09:33:49;98156.81;;;18.00;47.80
22755;BME280;11544;42.020;23.094;2022-10-29T09:36:22;98143.16;;;17.55;47.92
22755;BME280;11544;42.020;23.094;2022-10-29T09:39:24;98152.28;;;17.85;47.21
22755;BME280;11544;42.020;23.094;2022-10-29T09:42:00;98137.69;;;18.12;46.47
22755;BME280;11544;42.020;23.094;2022-10-29T09:44:54;98138.25;;;17.84;47.25
22755;BME280;11544;42.020;23.094;2022-10-29T09:47:57;98127.97;;;18.30;47.24
22755;BME280;11544;42.020;23.094;2022-10-29T09:50:40;98120.44;;;18.73;45.14
22755;BME280;11544;42.020;23.094;2022-10-29T09:53:17;98114.56;;;18.17;45.25
22755;BME280;11544;42.020;23.094;2022-10-29T09:55:44;98108.34;;;18.18;46.49
22755;BME280;11544;42.020;23.094;2022-10-29T09:58:21;98107.50;;;18.85;44.98
22755;BME280;11544;42.020;23.094;2022-10-29T10:00:48;98103.63;;;17.90;45.91
22755;BME280;11544;42.020;23.094;2022-10-29T10:05:58;98093.63;;;18.48;46.01
22755;BME280;11544;42.020;23.094;2022-10-29T10:08:26;98083.47;;;18.89;46.00
22755;BME280;11544;42.020;23.094;2022-10-29T10:11:02;98078.91;;;19.39;45.82
22755;BME280;11544;42.020;23.094;2022-10-29T10:13:59;98066.00;;;19.18;44.82
22755;BME280;11544;42.020;23.094;2022-10-29T10:16:31;98065.50;;;18.96;44.21
22755;BME280;11544;42.020;23.094;2022-10-29T10:19:01;98057.66;;;18.78;44.72
22755;BME280;11544;42.020;23.094;2022-10-29T10:21:31;98049.56;;;18.32;45.84
22755;BME280;11544;42.020;23.094;2022-10-29T10:24:31;98048.16;;;18.74;45.49
22755;BME280;11544;42.020;23.094;2022-10-29T10:30:13;98035.66;;;18.94;45.97
22755;BME280;11544;42.020;23.094;2022-10-29T10:32:42;98027.03;;;18.58;45.23
22755;BME280;11544;42.020;23.094;2022-10-29T10:35:28;98024.53;;;18.39;46.05
22755;BME280;11544;42.020;23.094;2022-10-29T10:37:55;98021.88;;;19.04;45.79
22755;BME280;11544;42.020;23.094;2022-10-29T10:40:43;98012.03;;;18.59;45.37
22755;BME280;11544;42.020;23.094;2022-10-29T10:43:33;98010.19;;;19.09;45.29
22755;BME280;11544;42.020;23.094;2022-10-29T10:46:09;97998.88;;;19.51;44.38
22755;BME280;11544;42.020;23.094;2022-10-29T10:48:36;98000.25;;;19.28;44.84
22755;BME280;11544;42.020;23.094;2022-10-29T10:51:23;97995.38;;;19.20;44.91
22755;BME280;11544;42.020;23.094;2022-10-29T10:53:50;97989.75;;;19.27;44.70
22755;BME280;11544;42.020;23.094;2022-10-29T10:56:19;97985.78;;;19.03;44.63
22755;BME280;11544;42.020;23.094;2022-10-29T10:59:15;97971.16;;;19.28;44.99
22755;BME280;11544;42.020;23.094;2022-10-29T11:01:42;97972.75;;;19.16;44.25
22755;BME280;11544;42.020;23.094;2022-10-29T11:04:16;97966.47;;;19.33;44.80
22755;BME280;11544;42.020;23.094;2022-10-29T11:06:47;97957.31;;;19.39;44.67
22755;BME280;11544;42.020;23.094;2022-10-29T11:09:29;97955.34;;;19.42;44.00
22755;BME280;11544;42.020;23.094;2022-10-29T11:12:34;97955.06;;;19.77;44.15
22755;BME280;11544;42.020;23.094;2022-10-29T11:15:00;97948.13;;;19.75;44.79
22755;BME280;11544;42.020;23.094;2022-10-29T11:17:46;97947.13;;;20.06;43.83
22755;BME280;11544;42.020;23.094;2022-10-29T11:20:26;97942.00;;;19.88;43.23
22755;BME280;11544;42.020;23.094;2022-10-29T11:23:14;97925.94;;;20.06;43.84
22755;BME280;11544;42.020;23.094;2022-10-29T11:25:53;97918.16;;;20.03;43.41
22755;BME280;11544;42.020;23.094;2022-10-29T11:39:58;97892.56;;;20.18;43.85
22755;BME280;11544;42.020;23.094;2022-10-29T11:42:35;97892.13;;;20.38;43.47
22755;BME280;11544;42.020;23.094;2022-10-29T11:45:09;97891.81;;;20.43;42.67
22755;BME280;11544;42.020;23.094;2022-10-29T11:57:54;97861.91;;;20.55;38.68
22755;BME280;11544;42.020;23.094;2022-10-29T12:03:40;97858.81;;;20.76;37.99
22755;BME280;11544;42.020;23.094;2022-10-29T12:13:03;97838.31;;;21.05;39.08
22755;BME280;11544;42.020;23.094;2022-10-29T12:18:44;97826.09;;;21.02;37.70
22755;BME280;11544;42.020;23.094;2022-10-29T12:35:17;97812.47;;;20.68;37.93
22755;BME280;11544;42.020;23.094;2022-10-29T12:40:52;97803.09;;;21.15;37.96
22755;BME280;11544;42.020;23.094;2022-10-29T12:43:22;97804.28;;;20.99;36.69
22755;BME280;11544;42.020;23.094;2022-10-29T12:46:02;97802.16;;;21.17;37.02
22755;BME280;11544;42.020;23.094;2022-10-29T12:54:22;97790.81;;;21.02;38.25
22755;BME280;11544;42.020;23.094;2022-10-29T12:56:52;97793.78;;;21.10;38.66
22755;BME280;11544;42.020;23.094;2022-10-29T12:59:31;97780.19;;;20.89;38.46
22755;BME280;11544;42.020;23.094;2022-10-29T13:02:26;97782.31;;;21.22;37.00
22755;BME280;11544;42.020;23.094;2022-10-29T13:15:59;97761.97;;;21.10;37.68
22755;BME280;11544;42.020;23.094;2022-10-29T13:19:28;97757.63;;;21.09;37.83
22755;BME280;11544;42.020;23.094;2022-10-29T13:21:59;97751.25;;;20.99;38.19
22755;BME280;11544;42.020;23.094;2022-10-29T13:24:32;97753.28;;;20.82;37.78
22755;BME280;11544;42.020;23.094;2022-10-29T13:27:31;97750.19;;;21.01;36.82
22755;BME280;11544;42.020;23.094;2022-10-29T13:30:26;97740.03;;;20.82;37.95
22755;BME280;11544;42.020;23.094;2022-10-29T13:54:02;97720.31;;;20.21;39.63
22755;BME280;11544;42.020;23.094;2022-10-29T13:56:59;97720.94;;;20.24;39.60
22755;BME280;11544;42.020;23.094;2022-10-29T14:03:21;97717.50;;;20.37;39.73
22755;BME280;11544;42.020;23.094;2022-10-29T14:09:04;97714.03;;;20.22;38.88
22755;BME280;11544;42.020;23.094;2022-10-29T14:11:38;97723.16;;;20.18;38.88
22755;BME280;11544;42.020;23.094;2022-10-29T14:14:23;97724.41;;;20.12;38.92
22755;BME280;11544;42.020;23.094;2022-10-29T14:17:22;97716.44;;;19.99;38.94
22755;BME280;11544;42.020;23.094;2022-10-29T14:19:52;97714.53;;;20.01;38.99
22755;BME280;11544;42.020;23.094;2022-10-29T14:22:29;97705.94;;;19.98;38.31
22755;BME280;11544;42.020;23.094;2022-10-29T14:25:01;97705.91;;;19.85;38.29
22755;BME280;11544;42.020;23.094;2022-10-29T14:27:28;97702.75;;;19.93;37.98
22755;BME280;11544;42.020;23.094;2022-10-29T14:30:12;97700.06;;;19.80;38.21
22755;BME280;11544;42.020;23.094;2022-10-29T14:32:38;97693.81;;;19.81;37.96
22755;BME280;11544;42.020;23.094;2022-10-29T14:35:05;97699.66;;;19.86;37.83
22755;BME280;11544;42.020;23.094;2022-10-29T14:37:39;97693.38;;;19.74;37.79
22755;BME280;11544;42.020;23.094;2022-10-29T14:40:15;97704.91;;;19.73;37.56
22755;BME280;11544;42.020;23.094;2022-10-29T14:42:45;97696.84;;;19.60;37.98
22755;BME280;11544;42.020;23.094;2022-10-29T14:45:18;97694.97;;;19.62;37.50
22755;BME280;11544;42.020;23.094;2022-10-29T14:47:54;97695.19;;;19.59;37.75
22755;BME280;11544;42.020;23.094;2022-10-29T14:50:26;97696.53;;;19.52;37.93
22755;BME280;11544;42.020;23.094;2022-10-29T14:52:57;97697.34;;;19.53;39.57
22755;BME280;11544;42.020;23.094;2022-10-29T14:55:27;97700.75;;;19.55;39.79
22755;BME280;11544;42.020;23.094;2022-10-29T14:58:06;97697.44;;;19.51;39.15
22755;BME280;11544;42.020;23.094;2022-10-29T15:00:55;97702.31;;;19.44;39.60
22755;BME280;11544;42.020;23.094;2022-10-29T15:03:22;97701.38;;;19.31;39.71
22755;BME280;11544;42.020;23.094;2022-10-29T15:05:49;97705.72;;;19.18;40.41
22755;BME280;11544;42.020;23.094;2022-10-29T15:08:21;97705.00;;;19.16;41.61
22755;BME280;11544;42.020;23.094;2022-10-29T15:10:50;97701.88;;;18.95;42.28
22755;BME280;11544;42.020;23.094;2022-10-29T15:13:38;97715.16;;;18.79;42.40
22755;BME280;11544;42.020;23.094;2022-10-29T15:16:08;97715.56;;;18.43;42.88
22755;BME280;11544;42.020;23.094;2022-10-29T15:18:46;97712.97;;;18.27;43.47
22755;BME280;11544;42.020;23.094;2022-10-29T15:21:22;97724.91;;;18.02;43.72
22755;BME280;11544;42.020;23.094;2022-10-29T15:23:52;97714.47;;;18.01;43.77
22755;BME280;11544;42.020;23.094;2022-10-29T15:26:20;97720.53;;;17.87;43.37
22755;BME280;11544;42.020;23.094;2022-10-29T15:28:48;97717.47;;;17.63;44.13
22755;BME280;11544;42.020;23.094;2022-10-29T15:33:46;97725.13;;;17.51;44.74
22755;BME280;11544;42.020;23.094;2022-10-29T15:36:14;97726.63;;;17.24;45.07
22755;BME280;11544;42.020;23.094;2022-10-29T15:43:50;97729.72;;;16.99;45.26
22755;BME280;11544;42.020;23.094;2022-10-29T15:46:24;97741.00;;;17.01;44.75
22755;BME280;11544;42.020;23.094;2022-10-29T15:48:50;97739.97;;;16.87;44.94
22755;BME280;11544;42.020;23.094;2022-10-29T15:51:17;97747.28;;;16.98;44.95
22755;BME280;11544;42.020;23.094;2022-10-29T15:53:46;97750.09;;;16.78;45.58